Bartlett Cove, AK

09:05 PM AKST del 03 Dicembre 2016 (GMT -0900)
ASOS_HFM | | Change Station

Alt. 29 ft 58.42 °N, 135.73 °W | Updated 40 minutes ago

Scattered Clouds
Nubi sparse
30 °F
Sembra 30 °F
N
0
Vento Variabile Vento da Nord
Gusts 0.0 mph

Oggi
Massima -- | Minima -- °F
--% Possibilità di precip.
Ieri
Massima -- | Minima -- °F
Precip. -- in
Pressione 29.84 in
Visibilità 10.0 miglia
Nuvole Nubi sparse 6000 ft
Raffreddamento del vento 30 °F
Punto di rugiada 27 °F
Umidità 86%
Piovosità in
Spessore del manto nevoso Non disponibile.
8:31 AM 3:15 PM
Luna crescente, 20% visible
METAR PAGS 040556Z AUTO 00000KT 10SM SCT060 M02/M03 A2984 RMK AO2 SLP105 60000 T10221028 10017 21022 51019 FZRANO
Pressione 29.84 in
Visibilità 10.0 miglia
Nuvole Nubi sparse 6000 ft
Raffreddamento del vento 30 °F
Punto di rugiada 27 °F
Umidità 86%
Piovosità in
Spessore del manto nevoso Non disponibile.
8:31 AM 3:15 PM
Luna crescente, 20% visible
METAR PAGS 040556Z AUTO 00000KT 10SM SCT060 M02/M03 A2984 RMK AO2 SLP105 60000 T10221028 10017 21022 51019 FZRANO

10-Day Weather Forecast

Almanac

Astronomia

Dec. 03, 2016 Alba Tramonto
Ora attuale
Crepuscolo civile
Crepuscolo nautico
Crepuscolo astronomico
Luna
Estensione della luce visibile
Lunghezza del giorno
Tomorrow will be .
, % of the Moon is Illuminated

Gli estremi di oggi

State Highs State Lows

Community

WunderPhotos

Upload Photos

1,955,586 foto caricate!

WunderBlog® & News

Nearby

Qualità dell'aria

  Qualità dell'aria Indice AQ Inquinante
Not available.

Profondità neve

Stazione Profondità Altitudine

Attività sismica

Città  Distanza Mag. Data & Ora
Minimo Magnitudo Mostrato è 2.5.

Temperature delle acque costiere

Località Temperatura

Stations

Stazioni meteo nelle vicinanze

Ubicazione della stazione Temp. Raffreddamento del vento Punto di rugiada Umidità Vento Precip. Alt. Aggiornato Tipo
                   

Watches & Warnings

There are currently no watches in effect.